sensor_id;sensor_type;location;lat;lon;timestamp;pressure;altitude;pressure_sealevel;temperature;humidity
36190;BME280;22232;50.914;13.858;2022-07-15T00:00:10;98021.94;;;13.63;100.00
36190;BME280;22232;50.914;13.858;2022-07-15T00:02:38;98018.34;;;13.57;100.00
36190;BME280;22232;50.914;13.858;2022-07-15T00:05:08;98021.19;;;13.50;100.00
36190;BME280;22232;50.914;13.858;2022-07-15T00:07:36;98022.50;;;13.48;100.00
36190;BME280;22232;50.914;13.858;2022-07-15T00:10:05;98032.66;;;13.46;99.51
36190;BME280;22232;50.914;13.858;2022-07-15T00:12:48;98014.13;;;13.44;98.54
36190;BME280;22232;50.914;13.858;2022-07-15T00:15:19;98022.50;;;13.48;95.85
36190;BME280;22232;50.914;13.858;2022-07-15T00:17:47;98017.97;;;13.48;96.45
36190;BME280;22232;50.914;13.858;2022-07-15T00:20:16;98017.88;;;13.43;98.44
36190;BME280;22232;50.914;13.858;2022-07-15T00:22:44;98024.53;;;13.41;98.89
36190;BME280;22232;50.914;13.858;2022-07-15T00:25:13;98018.53;;;13.34;100.00
36190;BME280;22232;50.914;13.858;2022-07-15T00:28:05;98017.78;;;13.21;100.00
36190;BME280;22232;50.914;13.858;2022-07-15T00:30:36;98017.66;;;13.16;100.00
36190;BME280;22232;50.914;13.858;2022-07-15T00:33:05;98027.47;;;13.11;100.00
36190;BME280;22232;50.914;13.858;2022-07-15T00:35:34;98020.75;;;13.08;100.00
36190;BME280;22232;50.914;13.858;2022-07-15T00:38:02;98016.03;;;12.98;100.00
36190;BME280;22232;50.914;13.858;2022-07-15T00:40:49;98017.31;;;12.96;100.00
36190;BME280;22232;50.914;13.858;2022-07-15T00:43:18;98013.72;;;12.90;100.00
36190;BME280;22232;50.914;13.858;2022-07-15T00:45:46;98021.09;;;12.83;100.00
36190;BME280;22232;50.914;13.858;2022-07-15T00:48:14;98013.88;;;12.83;100.00
36190;BME280;22232;50.914;13.858;2022-07-15T00:50:46;98017.38;;;12.84;100.00
36190;BME280;22232;50.914;13.858;2022-07-15T00:53:21;98018.31;;;12.78;100.00
36190;BME280;22232;50.914;13.858;2022-07-15T00:55:52;98022.31;;;12.75;100.00
36190;BME280;22232;50.914;13.858;2022-07-15T00:58:24;98020.91;;;12.73;100.00
36190;BME280;22232;50.914;13.858;2022-07-15T01:00:54;98017.66;;;12.71;100.00
36190;BME280;22232;50.914;13.858;2022-07-15T01:03:22;98024.63;;;12.72;100.00
36190;BME280;22232;50.914;13.858;2022-07-15T01:05:51;98028.84;;;12.68;100.00
36190;BME280;22232;50.914;13.858;2022-07-15T01:08:19;98029.56;;;12.63;100.00
36190;BME280;22232;50.914;13.858;2022-07-15T01:10:47;98029.56;;;12.63;100.00
36190;BME280;22232;50.914;13.858;2022-07-15T01:13:18;98037.97;;;12.55;100.00
36190;BME280;22232;50.914;13.858;2022-07-15T01:15:47;98043.47;;;12.48;100.00
36190;BME280;22232;50.914;13.858;2022-07-15T01:18:16;98037.78;;;12.45;100.00
36190;BME280;22232;50.914;13.858;2022-07-15T01:20:44;98042.28;;;12.44;100.00
36190;BME280;22232;50.914;13.858;2022-07-15T01:23:17;98040.34;;;12.39;100.00
36190;BME280;22232;50.914;13.858;2022-07-15T01:25:56;98040.00;;;12.36;100.00
36190;BME280;22232;50.914;13.858;2022-07-15T01:28:24;98047.78;;;12.37;100.00
36190;BME280;22232;50.914;13.858;2022-07-15T01:30:53;98043.25;;;12.38;100.00
36190;BME280;22232;50.914;13.858;2022-07-15T01:33:21;98046.16;;;12.36;100.00
36190;BME280;22232;50.914;13.858;2022-07-15T01:35:48;98048.59;;;12.38;100.00
36190;BME280;22232;50.914;13.858;2022-07-15T01:38:18;98045.69;;;12.39;100.00
36190;BME280;22232;50.914;13.858;2022-07-15T01:40:49;98051.50;;;12.36;100.00
36190;BME280;22232;50.914;13.858;2022-07-15T01:43:17;98054.75;;;12.38;100.00
36190;BME280;22232;50.914;13.858;2022-07-15T01:45:46;98054.41;;;12.35;100.00
36190;BME280;22232;50.914;13.858;2022-07-15T01:48:19;98062.44;;;12.35;100.00
36190;BME280;22232;50.914;13.858;2022-07-15T01:51:28;98060.09;;;12.38;100.00
36190;BME280;22232;50.914;13.858;2022-07-15T01:53:56;98051.84;;;12.40;100.00
36190;BME280;22232;50.914;13.858;2022-07-15T01:56:25;98053.38;;;12.36;100.00
36190;BME280;22232;50.914;13.858;2022-07-15T01:58:53;98050.59;;;12.31;100.00
36190;BME280;22232;50.914;13.858;2022-07-15T02:01:20;98056.63;;;12.26;100.00
36190;BME280;22232;50.914;13.858;2022-07-15T02:03:48;98056.88;;;12.25;100.00
36190;BME280;22232;50.914;13.858;2022-07-15T02:06:16;98061.09;;;12.21;100.00
36190;BME280;22232;50.914;13.858;2022-07-15T02:08:44;98065.25;;;12.16;100.00
36190;BME280;22232;50.914;13.858;2022-07-15T02:11:15;98060.84;;;12.10;100.00
36190;BME280;22232;50.914;13.858;2022-07-15T02:13:47;98065.63;;;11.97;100.00
36190;BME280;22232;50.914;13.858;2022-07-15T02:16:16;98065.97;;;11.88;100.00
36190;BME280;22232;50.914;13.858;2022-07-15T02:18:44;98071.28;;;11.77;100.00
36190;BME280;22232;50.914;13.858;2022-07-15T02:21:11;98075.47;;;11.73;100.00
36190;BME280;22232;50.914;13.858;2022-07-15T02:23:39;98068.94;;;11.68;100.00
36190;BME280;22232;50.914;13.858;2022-07-15T02:26:08;98065.34;;;11.63;100.00
36190;BME280;22232;50.914;13.858;2022-07-15T02:28:36;98076.25;;;11.61;100.00
36190;BME280;22232;50.914;13.858;2022-07-15T02:31:04;98080.66;;;11.56;100.00
36190;BME280;22232;50.914;13.858;2022-07-15T02:33:36;98080.31;;;11.52;100.00
36190;BME280;22232;50.914;13.858;2022-07-15T02:36:08;98075.69;;;11.47;100.00
36190;BME280;22232;50.914;13.858;2022-07-15T02:38:37;98078.56;;;11.46;100.00
36190;BME280;22232;50.914;13.858;2022-07-15T02:41:04;98075.41;;;11.37;100.00
36190;BME280;22232;50.914;13.858;2022-07-15T02:43:32;98080.41;;;11.34;100.00
36190;BME280;22232;50.914;13.858;2022-07-15T02:46:01;98070.53;;;11.34;100.00
36190;BME280;22232;50.914;13.858;2022-07-15T02:48:30;98079.22;;;11.30;100.00
36190;BME280;22232;50.914;13.858;2022-07-15T02:51:01;98079.34;;;11.35;100.00
36190;BME280;22232;50.914;13.858;2022-07-15T02:53:29;98084.69;;;11.35;100.00
36190;BME280;22232;50.914;13.858;2022-07-15T02:56:02;98081.56;;;11.38;100.00
36190;BME280;22232;50.914;13.858;2022-07-15T02:58:31;98085.63;;;11.40;100.00
36190;BME280;22232;50.914;13.858;2022-07-15T03:01:00;98092.97;;;11.45;100.00
36190;BME280;22232;50.914;13.858;2022-07-15T03:03:31;98087.28;;;11.41;100.00
36190;BME280;22232;50.914;13.858;2022-07-15T03:06:00;98091.22;;;11.39;100.00
36190;BME280;22232;50.914;13.858;2022-07-15T03:08:27;98093.28;;;11.37;100.00
36190;BME280;22232;50.914;13.858;2022-07-15T03:10:55;98097.56;;;11.38;100.00
36190;BME280;22232;50.914;13.858;2022-07-15T03:13:24;98094.22;;;11.42;100.00
36190;BME280;22232;50.914;13.858;2022-07-15T03:15:53;98094.03;;;11.56;100.00
36190;BME280;22232;50.914;13.858;2022-07-15T03:18:21;98093.25;;;11.79;100.00
36190;BME280;22232;50.914;13.858;2022-07-15T03:20:50;98097.13;;;12.06;100.00
36190;BME280;22232;50.914;13.858;2022-07-15T03:23:19;98093.03;;;12.39;100.00
36190;BME280;22232;50.914;13.858;2022-07-15T03:25:48;98100.97;;;12.74;100.00
36190;BME280;22232;50.914;13.858;2022-07-15T03:28:16;98101.28;;;13.18;100.00
36190;BME280;22232;50.914;13.858;2022-07-15T03:30:48;98094.28;;;13.63;100.00
36190;BME280;22232;50.914;13.858;2022-07-15T03:33:16;98092.75;;;14.00;100.00
36190;BME280;22232;50.914;13.858;2022-07-15T03:35:45;98097.03;;;14.57;100.00
36190;BME280;22232;50.914;13.858;2022-07-15T03:38:13;98091.88;;;15.00;96.42
36190;BME280;22232;50.914;13.858;2022-07-15T03:40:42;98094.44;;;15.38;92.20
36190;BME280;22232;50.914;13.858;2022-07-15T03:43:09;98099.72;;;15.88;85.61
36190;BME280;22232;50.914;13.858;2022-07-15T03:45:37;98104.56;;;16.28;80.70
36190;BME280;22232;50.914;13.858;2022-07-15T03:48:05;98102.94;;;16.74;76.18
36190;BME280;22232;50.914;13.858;2022-07-15T03:50:35;98106.22;;;16.92;73.69
36190;BME280;22232;50.914;13.858;2022-07-15T03:53:03;98101.78;;;17.33;70.67
36190;BME280;22232;50.914;13.858;2022-07-15T03:55:31;98099.94;;;17.75;69.13
36190;BME280;22232;50.914;13.858;2022-07-15T03:57:58;98096.13;;;18.17;64.53
36190;BME280;22232;50.914;13.858;2022-07-15T04:00:26;98100.44;;;18.28;62.71
36190;BME280;22232;50.914;13.858;2022-07-15T04:02:57;98108.47;;;18.53;62.83
36190;BME280;22232;50.914;13.858;2022-07-15T04:05:25;98109.78;;;18.61;60.86
36190;BME280;22232;50.914;13.858;2022-07-15T04:07:52;98113.59;;;18.50;62.49
36190;BME280;22232;50.914;13.858;2022-07-15T04:10:20;98109.53;;;18.73;59.38
36190;BME280;22232;50.914;13.858;2022-07-15T04:12:48;98109.78;;;18.66;61.22
36190;BME280;22232;50.914;13.858;2022-07-15T04:15:15;98116.88;;;19.17;59.45
36190;BME280;22232;50.914;13.858;2022-07-15T04:17:45;98116.19;;;19.45;58.03
36190;BME280;22232;50.914;13.858;2022-07-15T04:20:18;98122.16;;;19.82;56.24
36190;BME280;22232;50.914;13.858;2022-07-15T04:22:48;98123.13;;;19.57;58.34
36190;BME280;22232;50.914;13.858;2022-07-15T04:25:18;98121.19;;;19.67;57.59
36190;BME280;22232;50.914;13.858;2022-07-15T04:27:47;98135.19;;;19.75;56.72
36190;BME280;22232;50.914;13.858;2022-07-15T04:30:18;98136.97;;;19.89;57.18
36190;BME280;22232;50.914;13.858;2022-07-15T04:32:49;98140.56;;;19.35;58.42
36190;BME280;22232;50.914;13.858;2022-07-15T04:35:18;98145.75;;;18.46;62.25
36190;BME280;22232;50.914;13.858;2022-07-15T04:37:53;98153.53;;;17.35;68.86
36190;BME280;22232;50.914;13.858;2022-07-15T04:40:20;98154.06;;;16.69;77.61
36190;BME280;22232;50.914;13.858;2022-07-15T04:42:48;98152.97;;;15.86;87.67
36190;BME280;22232;50.914;13.858;2022-07-15T04:45:17;98153.13;;;15.47;98.31
36190;BME280;22232;50.914;13.858;2022-07-15T04:47:45;98157.72;;;15.24;100.00
36190;BME280;22232;50.914;13.858;2022-07-15T04:50:19;98162.56;;;15.27;100.00
36190;BME280;22232;50.914;13.858;2022-07-15T04:53:06;98168.28;;;15.09;100.00
36190;BME280;22232;50.914;13.858;2022-07-15T04:55:34;98165.06;;;15.07;100.00
36190;BME280;22232;50.914;13.858;2022-07-15T04:58:03;98168.28;;;15.09;100.00
36190;BME280;22232;50.914;13.858;2022-07-15T05:00:32;98173.72;;;15.14;100.00
36190;BME280;22232;50.914;13.858;2022-07-15T05:03:01;98178.91;;;14.99;100.00
36190;BME280;22232;50.914;13.858;2022-07-15T05:05:34;98178.41;;;15.02;100.00
36190;BME280;22232;50.914;13.858;2022-07-15T05:08:02;98187.28;;;15.02;100.00
36190;BME280;22232;50.914;13.858;2022-07-15T05:10:40;98185.53;;;15.13;100.00
36190;BME280;22232;50.914;13.858;2022-07-15T05:13:08;98184.09;;;15.54;100.00
36190;BME280;22232;50.914;13.858;2022-07-15T05:15:35;98192.94;;;16.41;100.00
36190;BME280;22232;50.914;13.858;2022-07-15T05:18:13;98196.47;;;16.84;86.77
36190;BME280;22232;50.914;13.858;2022-07-15T05:20:41;98202.94;;;17.56;87.11
36190;BME280;22232;50.914;13.858;2022-07-15T05:23:12;98197.91;;;18.06;77.95
36190;BME280;22232;50.914;13.858;2022-07-15T05:25:45;98201.94;;;18.03;75.50
36190;BME280;22232;50.914;13.858;2022-07-15T05:28:13;98210.50;;;17.64;74.72
36190;BME280;22232;50.914;13.858;2022-07-15T05:30:42;98213.63;;;17.20;75.41
36190;BME280;22232;50.914;13.858;2022-07-15T05:33:15;98215.34;;;16.52;84.46
36190;BME280;22232;50.914;13.858;2022-07-15T05:35:44;98222.91;;;16.55;86.93
36190;BME280;22232;50.914;13.858;2022-07-15T05:38:19;98225.22;;;16.36;89.28
36190;BME280;22232;50.914;13.858;2022-07-15T05:40:47;98226.50;;;16.28;94.63
36190;BME280;22232;50.914;13.858;2022-07-15T05:43:14;98224.28;;;16.20;94.11
36190;BME280;22232;50.914;13.858;2022-07-15T05:45:44;98220.81;;;16.25;93.30
36190;BME280;22232;50.914;13.858;2022-07-15T05:48:11;98225.38;;;16.57;92.64
36190;BME280;22232;50.914;13.858;2022-07-15T05:50:48;98234.44;;;16.83;85.82
36190;BME280;22232;50.914;13.858;2022-07-15T05:53:16;98230.75;;;16.57;82.04
36190;BME280;22232;50.914;13.858;2022-07-15T05:55:44;98233.09;;;16.85;81.88
36190;BME280;22232;50.914;13.858;2022-07-15T05:58:18;98226.13;;;16.89;79.38
36190;BME280;22232;50.914;13.858;2022-07-15T06:00:47;98228.09;;;17.09;82.13
36190;BME280;22232;50.914;13.858;2022-07-15T06:03:14;98228.28;;;17.50;74.49
36190;BME280;22232;50.914;13.858;2022-07-15T06:05:44;98231.84;;;17.76;71.22
36190;BME280;22232;50.914;13.858;2022-07-15T06:08:12;98232.94;;;17.75;72.20
36190;BME280;22232;50.914;13.858;2022-07-15T06:10:44;98234.22;;;17.47;73.87
36190;BME280;22232;50.914;13.858;2022-07-15T06:13:12;98229.63;;;17.53;75.88
36190;BME280;22232;50.914;13.858;2022-07-15T06:15:41;98233.34;;;17.36;76.22
36190;BME280;22232;50.914;13.858;2022-07-15T06:18:16;98238.22;;;17.39;83.48
36190;BME280;22232;50.914;13.858;2022-07-15T06:20:44;98236.63;;;17.49;78.95
36190;BME280;22232;50.914;13.858;2022-07-15T06:23:12;98232.88;;;17.55;78.23
36190;BME280;22232;50.914;13.858;2022-07-15T06:25:39;98232.88;;;17.65;78.69
36190;BME280;22232;50.914;13.858;2022-07-15T06:28:09;98240.91;;;17.39;84.08
36190;BME280;22232;50.914;13.858;2022-07-15T06:30:37;98243.81;;;17.23;84.07
36190;BME280;22232;50.914;13.858;2022-07-15T06:33:05;98242.09;;;17.01;87.17
36190;BME280;22232;50.914;13.858;2022-07-15T06:35:33;98246.97;;;17.04;88.21
36190;BME280;22232;50.914;13.858;2022-07-15T06:38:00;98247.69;;;16.94;90.63
36190;BME280;22232;50.914;13.858;2022-07-15T06:40:29;98249.34;;;17.01;89.29
36190;BME280;22232;50.914;13.858;2022-07-15T06:42:57;98253.38;;;16.98;91.96
36190;BME280;22232;50.914;13.858;2022-07-15T06:45:44;98246.94;;;16.62;90.55
36190;BME280;22232;50.914;13.858;2022-07-15T06:48:11;98242.50;;;16.83;90.55
36190;BME280;22232;50.914;13.858;2022-07-15T06:50:39;98250.97;;;16.96;92.07
36190;BME280;22232;50.914;13.858;2022-07-15T06:53:07;98245.16;;;17.20;87.01
36190;BME280;22232;50.914;13.858;2022-07-15T06:55:35;98245.44;;;17.24;82.77
36190;BME280;22232;50.914;13.858;2022-07-15T06:58:04;98249.28;;;17.43;83.23
36190;BME280;22232;50.914;13.858;2022-07-15T07:00:34;98247.78;;;17.83;80.24
36190;BME280;22232;50.914;13.858;2022-07-15T07:03:02;98248.09;;;18.07;79.67
36190;BME280;22232;50.914;13.858;2022-07-15T07:05:29;98247.84;;;17.93;73.59
36190;BME280;22232;50.914;13.858;2022-07-15T07:07:57;98253.53;;;18.02;72.49
36190;BME280;22232;50.914;13.858;2022-07-15T07:10:25;98249.47;;;18.25;73.77
36190;BME280;22232;50.914;13.858;2022-07-15T07:12:53;98248.94;;;18.48;71.19
36190;BME280;22232;50.914;13.858;2022-07-15T07:15:21;98252.19;;;18.30;67.03
36190;BME280;22232;50.914;13.858;2022-07-15T07:17:51;98260.28;;;18.25;62.25
36190;BME280;22232;50.914;13.858;2022-07-15T07:20:19;98259.75;;;18.38;63.25
36190;BME280;22232;50.914;13.858;2022-07-15T07:22:47;98254.59;;;18.67;62.43
36190;BME280;22232;50.914;13.858;2022-07-15T07:25:14;98253.00;;;18.46;59.02
36190;BME280;22232;50.914;13.858;2022-07-15T07:27:42;98253.50;;;18.84;60.06
36190;BME280;22232;50.914;13.858;2022-07-15T07:30:10;98248.06;;;19.04;60.92
36190;BME280;22232;50.914;13.858;2022-07-15T07:32:37;98255.59;;;19.12;58.31
36190;BME280;22232;50.914;13.858;2022-07-15T07:35:06;98256.84;;;19.45;54.90
36190;BME280;22232;50.914;13.858;2022-07-15T07:37:35;98259.31;;;19.42;54.91
36190;BME280;22232;50.914;13.858;2022-07-15T07:40:06;98251.88;;;19.68;54.72
36190;BME280;22232;50.914;13.858;2022-07-15T07:42:34;98264.59;;;19.67;54.03
36190;BME280;22232;50.914;13.858;2022-07-15T07:45:02;98259.59;;;19.90;52.07
36190;BME280;22232;50.914;13.858;2022-07-15T07:47:33;98259.50;;;20.05;51.99
36190;BME280;22232;50.914;13.858;2022-07-15T07:50:05;98252.59;;;20.23;48.53
36190;BME280;22232;50.914;13.858;2022-07-15T07:52:34;98247.25;;;20.52;48.52
36190;BME280;22232;50.914;13.858;2022-07-15T07:55:02;98252.88;;;20.61;49.42
36190;BME280;22232;50.914;13.858;2022-07-15T07:57:30;98242.94;;;20.46;49.71
36190;BME280;22232;50.914;13.858;2022-07-15T07:59:59;98245.81;;;20.26;47.96
36190;BME280;22232;50.914;13.858;2022-07-15T08:02:27;98251.13;;;20.41;48.46
36190;BME280;22232;50.914;13.858;2022-07-15T08:04:55;98247.78;;;20.54;48.25
36190;BME280;22232;50.914;13.858;2022-07-15T08:07:23;98249.53;;;20.69;48.43
36190;BME280;22232;50.914;13.858;2022-07-15T08:09:50;98248.09;;;21.06;46.35
36190;BME280;22232;50.914;13.858;2022-07-15T08:12:18;98251.84;;;21.10;47.00
36190;BME280;22232;50.914;13.858;2022-07-15T08:14:45;98241.13;;;20.71;45.75
36190;BME280;22232;50.914;13.858;2022-07-15T08:17:13;98254.06;;;20.79;46.67
36190;BME280;22232;50.914;13.858;2022-07-15T08:19:43;98246.66;;;20.84;46.13
36190;BME280;22232;50.914;13.858;2022-07-15T08:22:13;98245.88;;;21.37;46.14
36190;BME280;22232;50.914;13.858;2022-07-15T08:24:41;98245.50;;;21.44;45.22
36190;BME280;22232;50.914;13.858;2022-07-15T08:27:09;98243.13;;;21.61;44.88
36190;BME280;22232;50.914;13.858;2022-07-15T08:29:37;98242.09;;;21.95;43.61
36190;BME280;22232;50.914;13.858;2022-07-15T08:32:05;98235.56;;;22.34;42.50
36190;BME280;22232;50.914;13.858;2022-07-15T08:34:33;98240.06;;;22.25;42.99
36190;BME280;22232;50.914;13.858;2022-07-15T08:37:00;98229.84;;;22.96;44.08
36190;BME280;22232;50.914;13.858;2022-07-15T08:39:28;98232.78;;;23.41;41.95
36190;BME280;22232;50.914;13.858;2022-07-15T08:41:55;98226.78;;;23.52;40.49
36190;BME280;22232;50.914;13.858;2022-07-15T08:44:23;98235.25;;;22.82;41.53
36190;BME280;22232;50.914;13.858;2022-07-15T08:46:53;98250.31;;;22.60;41.55
36190;BME280;22232;50.914;13.858;2022-07-15T08:49:23;98239.44;;;22.09;42.78
36190;BME280;22232;50.914;13.858;2022-07-15T08:51:52;98253.28;;;22.45;41.62
36190;BME280;22232;50.914;13.858;2022-07-15T08:54:27;98247.59;;;21.71;42.17
36190;BME280;22232;50.914;13.858;2022-07-15T08:56:56;98241.84;;;21.72;42.99
36190;BME280;22232;50.914;13.858;2022-07-15T08:59:25;98246.81;;;21.22;43.28
36190;BME280;22232;50.914;13.858;2022-07-15T09:01:53;98248.31;;;20.56;44.34
36190;BME280;22232;50.914;13.858;2022-07-15T09:04:21;98238.88;;;20.78;44.31
36190;BME280;22232;50.914;13.858;2022-07-15T09:06:49;98244.09;;;20.40;45.68
36190;BME280;22232;50.914;13.858;2022-07-15T09:09:35;98238.16;;;21.20;44.46
36190;BME280;22232;50.914;13.858;2022-07-15T09:12:10;98235.84;;;22.13;43.57
36190;BME280;22232;50.914;13.858;2022-07-15T09:14:43;98235.38;;;22.06;42.72
36190;BME280;22232;50.914;13.858;2022-07-15T09:20:00;98228.63;;;23.43;41.53
36190;BME280;22232;50.914;13.858;2022-07-15T09:22:31;98226.53;;;22.99;40.46
36190;BME280;22232;50.914;13.858;2022-07-15T09:25:06;98244.13;;;22.41;41.50
36190;BME280;22232;50.914;13.858;2022-07-15T09:27:38;98237.81;;;22.27;42.55
36190;BME280;22232;50.914;13.858;2022-07-15T09:36:16;98236.16;;;20.49;46.12
36190;BME280;22232;50.914;13.858;2022-07-15T09:38:45;98230.56;;;20.35;47.55
36190;BME280;22232;50.914;13.858;2022-07-15T09:44:04;98240.88;;;19.44;48.68
36190;BME280;22232;50.914;13.858;2022-07-15T09:46:53;98238.03;;;19.75;50.24
36190;BME280;22232;50.914;13.858;2022-07-15T09:51:55;98236.34;;;20.87;46.64
36190;BME280;22232;50.914;13.858;2022-07-15T09:54:25;98243.47;;;21.06;45.98
36190;BME280;22232;50.914;13.858;2022-07-15T09:56:53;98241.44;;;21.17;46.31
36190;BME280;22232;50.914;13.858;2022-07-15T09:59:20;98245.31;;;21.11;45.37
36190;BME280;22232;50.914;13.858;2022-07-15T10:01:48;98238.72;;;21.17;45.16
36190;BME280;22232;50.914;13.858;2022-07-15T10:04:18;98246.19;;;21.06;45.03
36190;BME280;22232;50.914;13.858;2022-07-15T10:06:51;98244.28;;;21.07;45.84
36190;BME280;22232;50.914;13.858;2022-07-15T10:09:39;98243.88;;;21.19;45.54
36190;BME280;22232;50.914;13.858;2022-07-15T10:12:10;98243.81;;;21.00;44.79
36190;BME280;22232;50.914;13.858;2022-07-15T10:14:46;98241.25;;;20.84;45.78
36190;BME280;22232;50.914;13.858;2022-07-15T10:39:18;98239.34;;;20.61;46.75
36190;BME280;22232;50.914;13.858;2022-07-15T10:42:00;98238.94;;;20.73;45.64
36190;BME280;22232;50.914;13.858;2022-07-15T10:44:35;98258.53;;;20.30;46.25
36190;BME280;22232;50.914;13.858;2022-07-15T10:49:48;98254.59;;;18.47;54.09
36190;BME280;22232;50.914;13.858;2022-07-15T10:52:25;98253.25;;;18.60;55.56
36190;BME280;22232;50.914;13.858;2022-07-15T11:05:33;98249.88;;;19.89;51.43
36190;BME280;22232;50.914;13.858;2022-07-15T11:13:47;98249.41;;;19.01;53.94
36190;BME280;22232;50.914;13.858;2022-07-15T11:16:19;98253.16;;;19.21;54.16
36190;BME280;22232;50.914;13.858;2022-07-15T11:18:51;98250.19;;;19.12;55.27
36190;BME280;22232;50.914;13.858;2022-07-15T11:21:21;98251.94;;;19.53;52.92
36190;BME280;22232;50.914;13.858;2022-07-15T11:23:50;98244.00;;;19.71;53.06
36190;BME280;22232;50.914;13.858;2022-07-15T11:26:18;98247.34;;;20.03;51.40
36190;BME280;22232;50.914;13.858;2022-07-15T11:28:53;98245.22;;;20.34;49.86
36190;BME280;22232;50.914;13.858;2022-07-15T11:31:23;98243.28;;;20.39;51.14
36190;BME280;22232;50.914;13.858;2022-07-15T11:33:55;98237.44;;;20.61;49.81
36190;BME280;22232;50.914;13.858;2022-07-15T11:36:23;98236.84;;;20.94;49.46
36190;BME280;22232;50.914;13.858;2022-07-15T11:38:51;98239.53;;;21.18;48.39
36190;BME280;22232;50.914;13.858;2022-07-15T11:41:20;98234.91;;;21.42;47.43
36190;BME280;22232;50.914;13.858;2022-07-15T11:44:09;98236.19;;;21.50;46.83
36190;BME280;22232;50.914;13.858;2022-07-15T11:46:57;98225.56;;;21.72;46.73
36190;BME280;22232;50.914;13.858;2022-07-15T11:49:36;98229.38;;;22.09;45.85
36190;BME280;22232;50.914;13.858;2022-07-15T11:52:21;98227.13;;;22.16;43.82
36190;BME280;22232;50.914;13.858;2022-07-15T11:54:50;98225.44;;;21.83;43.90
36190;BME280;22232;50.914;13.858;2022-07-15T11:57:17;98217.03;;;21.60;43.78
36190;BME280;22232;50.914;13.858;2022-07-15T11:59:55;98232.72;;;21.20;44.70
36190;BME280;22232;50.914;13.858;2022-07-15T12:02:25;98227.59;;;20.95;45.52
36190;BME280;22232;50.914;13.858;2022-07-15T12:05:04;98238.22;;;20.91;46.61
36190;BME280;22232;50.914;13.858;2022-07-15T12:07:44;98226.09;;;20.83;47.35
36190;BME280;22232;50.914;13.858;2022-07-15T12:10:12;98237.53;;;21.28;46.97
36190;BME280;22232;50.914;13.858;2022-07-15T12:13:00;98231.13;;;21.43;45.12
36190;BME280;22232;50.914;13.858;2022-07-15T12:15:33;98226.28;;;21.16;45.57
36190;BME280;22232;50.914;13.858;2022-07-15T12:18:02;98229.16;;;21.49;45.91
36190;BME280;22232;50.914;13.858;2022-07-15T12:20:30;98226.66;;;21.52;45.01
36190;BME280;22232;50.914;13.858;2022-07-15T12:23:06;98223.38;;;21.74;44.35
36190;BME280;22232;50.914;13.858;2022-07-15T12:25:34;98227.03;;;22.21;44.23
36190;BME280;22232;50.914;13.858;2022-07-15T12:28:02;98226.00;;;22.83;42.77
36190;BME280;22232;50.914;13.858;2022-07-15T12:30:35;98218.97;;;23.23;41.96
36190;BME280;22232;50.914;13.858;2022-07-15T12:33:13;98211.09;;;23.22;41.13
36190;BME280;22232;50.914;13.858;2022-07-15T12:35:41;98215.91;;;23.52;40.98
36190;BME280;22232;50.914;13.858;2022-07-15T12:38:09;98219.78;;;23.38;40.35
36190;BME280;22232;50.914;13.858;2022-07-15T12:40:36;98212.22;;;23.21;39.85
36190;BME280;22232;50.914;13.858;2022-07-15T12:43:04;98210.16;;;23.68;40.44
36190;BME280;22232;50.914;13.858;2022-07-15T12:45:36;98216.66;;;24.39;38.88
36190;BME280;22232;50.914;13.858;2022-07-15T12:48:12;98210.59;;;24.20;38.88
36190;BME280;22232;50.914;13.858;2022-07-15T12:53:25;98195.38;;;23.32;39.94
36190;BME280;22232;50.914;13.858;2022-07-15T12:55:59;98210.59;;;23.33;39.47
36190;BME280;22232;50.914;13.858;2022-07-15T12:58:30;98207.97;;;23.42;38.92
36190;BME280;22232;50.914;13.858;2022-07-15T13:01:10;98203.31;;;23.56;38.33
36190;BME280;22232;50.914;13.858;2022-07-15T13:03:38;98206.09;;;23.79;38.62
36190;BME280;22232;50.914;13.858;2022-07-15T13:06:07;98204.84;;;23.35;37.10
36190;BME280;22232;50.914;13.858;2022-07-15T13:08:37;98201.44;;;23.02;38.64
36190;BME280;22232;50.914;13.858;2022-07-15T13:11:07;98203.63;;;22.39;39.67
36190;BME280;22232;50.914;13.858;2022-07-15T13:13:37;98203.25;;;21.75;41.02
36190;BME280;22232;50.914;13.858;2022-07-15T13:16:06;98204.56;;;21.97;41.13
36190;BME280;22232;50.914;13.858;2022-07-15T13:18:35;98206.13;;;21.84;40.45
36190;BME280;22232;50.914;13.858;2022-07-15T13:21:04;98201.78;;;22.02;41.41
36190;BME280;22232;50.914;13.858;2022-07-15T13:23:32;98202.94;;;22.15;40.33
36190;BME280;22232;50.914;13.858;2022-07-15T13:26:00;98212.06;;;22.05;39.70
36190;BME280;22232;50.914;13.858;2022-07-15T13:28:27;98208.69;;;21.75;40.66
36190;BME280;22232;50.914;13.858;2022-07-15T13:30:55;98214.81;;;21.67;41.66
36190;BME280;22232;50.914;13.858;2022-07-15T13:33:23;98208.41;;;21.77;41.79
36190;BME280;22232;50.914;13.858;2022-07-15T13:35:51;98200.63;;;21.89;41.15
36190;BME280;22232;50.914;13.858;2022-07-15T13:38:18;98202.22;;;22.28;41.38
36190;BME280;22232;50.914;13.858;2022-07-15T13:40:46;98203.97;;;22.52;40.06
36190;BME280;22232;50.914;13.858;2022-07-15T13:43:13;98194.00;;;22.47;39.87
36190;BME280;22232;50.914;13.858;2022-07-15T13:45:41;98194.44;;;22.82;39.71
36190;BME280;22232;50.914;13.858;2022-07-15T13:48:14;98192.00;;;23.13;38.32
36190;BME280;22232;50.914;13.858;2022-07-15T13:50:41;98183.81;;;22.99;38.12
36190;BME280;22232;50.914;13.858;2022-07-15T13:53:28;98191.91;;;22.58;38.85
36190;BME280;22232;50.914;13.858;2022-07-15T13:55:55;98196.34;;;22.21;38.93
36190;BME280;22232;50.914;13.858;2022-07-15T13:58:23;98192.94;;;21.35;39.77
36190;BME280;22232;50.914;13.858;2022-07-15T14:00:51;98198.03;;;20.93;41.55